Rivers Edge, New York
Current Conditions -  °F | °C
As of 3:56 PM on Wednesday 17 Dec 2014 (Local Time) from KHWV Reporting Station
Overcast Overcast  
Wind Chill: 50°   Ceiling: 4600
Heat Index: 50°   Visibility: 10mi
Dew Point: 39°   Wind: 6mph
Humidity: 66%   Direction: 290°WNW
Pressure: 29.8"   Gusts: NA
Location:  40.8101°N, 72.851°W
Report Text: KHWV 172056Z AUTO 29005KT 10SM OVC046 10/04 A2980 RMK AO2 SLP092 T01000039 53008 TSNO
Loading
Personal Weather Stations






























Interactive Weather Map New forecast layout! Learn more

10-Day Weather Forecast

Advertisements
Track Severe Weather on mobile